»·PEaware :: UAL2086 KSMF-KSFO

UAL2086 :: KSMF-KSFO

FLIGHT INFORMATION

Flight Status: Arrived
Operator:
United Airlines
More flights by this operator :: More flights under this callsign
Pilot: Henderson P. (1210)
Aircraft: AIRBUS A320
(A320)
More flights by this aircraft type
Origin: KSMF Sacramento Intl
United States
Destination: KSFO San Francisco Intl
United States
More flights between these airports :: More routes between these airports
Route: THORN ALWYS CEDES ARCHI
File this flight plan on PilotEdge
Remarks:
Altitude:
(Current/Filed)
15,000ft
Speed:
(Current/Filed)
308kts
Departed: 13-Oct-18 05:24 AM
Arrived: 13-Oct-18 05:55 AM
Distance/Time
Traveled:
75nm/0:30
Distance/Time
To Go:
Arrived

Flight Plot

Page will automatically refresh every two minutes.

Flight plan parsing failed; only flown route is shown


Map Options




Map Legend


Flown Route
Filed Route
Departure Airport
Arrival Airport
Navaid (VOR, NDB)
Fix

Horizontal Profiles

Position Reports

Time Latitude Longitude Heading Altitude Ground
Speed
13-Oct-18 05:04 38.694396 -121.587010 271 42ft 0kts
13-Oct-18 05:05 38.694396 -121.587010 271 42ft 0kts
13-Oct-18 05:06 38.694396 -121.587010 271 42ft 0kts
13-Oct-18 05:07 38.694396 -121.587010 271 42ft 0kts
13-Oct-18 05:08 38.694396 -121.587010 271 42ft 0kts
13-Oct-18 05:09 38.694396 -121.587010 271 42ft 0kts
13-Oct-18 05:10 38.694396 -121.587010 271 42ft 0kts
13-Oct-18 05:11 38.694396 -121.587010 271 42ft 0kts
13-Oct-18 05:12 38.694396 -121.587010 271 42ft 0kts
13-Oct-18 05:13 38.694396 -121.587010 271 42ft 0kts
13-Oct-18 05:14 38.694396 -121.587010 271 42ft 0kts
13-Oct-18 05:15 38.694396 -121.587010 271 42ft 0kts
13-Oct-18 05:16 38.694494 -121.586324 227 42ft 2kts
13-Oct-18 05:17 38.694740 -121.586230 172 42ft 0kts
13-Oct-18 05:18 38.694740 -121.586230 172 42ft 0kts
13-Oct-18 05:19 38.694739 -121.586229 172 42ft 0kts
13-Oct-18 05:20 38.694007 -121.585506 91 42ft 8kts
13-Oct-18 05:21 38.692773 -121.582946 181 42ft 13kts
13-Oct-18 05:22 38.687756 -121.583023 180 42ft 22kts
13-Oct-18 05:23 38.683674 -121.582279 96 42ft 8kts
13-Oct-18 05:24 38.683638 -121.580604 91 42ft 4kts
13-Oct-18 05:25 38.683870 -121.580441 1 42ft 0kts
13-Oct-18 05:26 38.703898 -121.580090 1 226ft 169kts
13-Oct-18 05:27 38.750702 -121.566111 53 2772ft 201kts
13-Oct-18 05:28 38.727157 -121.497581 142 5154ft 271kts
13-Oct-18 05:29 38.667030 -121.432719 139 8536ft 292kts
13-Oct-18 05:30 38.602199 -121.362768 137 11204ft 327kts
13-Oct-18 05:31 38.525980 -121.280597 137 12570ft 388kts
13-Oct-18 05:32 38.440306 -121.188645 137 14665ft 410kts
13-Oct-18 05:33 38.352895 -121.095050 137 15002ft 409kts
13-Oct-18 05:34 38.245212 -121.052270 172 15009ft 417kts
13-Oct-18 05:35 38.130080 -121.035160 171 15004ft 416kts
13-Oct-18 05:36 38.015091 -121.017430 171 14997ft 416kts
13-Oct-18 05:37 37.900520 -120.999876 171 14993ft 415kts
13-Oct-18 05:38 37.785365 -120.982275 171 14990ft 415kts
13-Oct-18 05:39 37.671467 -120.983627 205 14973ft 418kts
13-Oct-18 05:40 37.616529 -121.101141 263 14642ft 381kts
13-Oct-18 05:41 37.600904 -121.223834 263 13770ft 335kts
13-Oct-18 05:42 37.587007 -121.336801 263 12770ft 322kts
13-Oct-18 05:43 37.573086 -121.447953 263 11647ft 319kts
13-Oct-18 05:44 37.559239 -121.558107 262 10236ft 315kts
13-Oct-18 05:45 37.542523 -121.660788 254 9127ft 293kts
13-Oct-18 05:46 37.519292 -121.756547 254 7777ft 282kts
13-Oct-18 05:47 37.497034 -121.849418 254 6990ft 256kts
13-Oct-18 05:48 37.473364 -121.918734 244 6990ft 218kts
13-Oct-18 05:49 37.480274 -121.988284 295 6590ft 209kts
13-Oct-18 05:50 37.504952 -122.054420 295 5412ft 206kts
13-Oct-18 05:51 37.527760 -122.115888 295 4158ft 211kts
13-Oct-18 05:52 37.552563 -122.182783 295 2991ft 205kts
13-Oct-18 05:53 37.573158 -122.238362 295 2071ft 144kts
13-Oct-18 05:54 37.589027 -122.281214 295 1334ft 133kts
13-Oct-18 05:55 37.600788 -122.323384 286 609ft 126kts
13-Oct-18 05:56 37.616034 -122.362954 297 36ft 124kts
13-Oct-18 05:57 37.622285 -122.381013 276 27ft 0kts
13-Oct-18 05:58 37.622285 -122.381014 276 27ft 0kts
13-Oct-18 05:59 37.622172 -122.384759 267 27ft 22kts
13-Oct-18 06:00 37.622976 -122.391387 246 27ft 17kts
13-Oct-18 06:01 37.619983 -122.391159 118 27ft 13kts
13-Oct-18 06:02 37.620362 -122.390017 27 27ft 1kts
13-Oct-18 06:03 37.620438 -122.389967 27 27ft 0kts
13-Oct-18 06:04 37.620438 -122.389967 27 27ft 0kts
13-Oct-18 06:05 37.620438 -122.389967 27 27ft 0kts
13-Oct-18 06:06 37.620438 -122.389967 27 27ft 0kts
13-Oct-18 06:07 37.620438 -122.389967 27 27ft 0kts

Navigation Log

Ident Type
Flight plan parsing failed, navigation log unavailable